sensor_id;sensor_type;location;lat;lon;timestamp;P1;durP1;ratioP1;P2;durP2;ratioP2
78887;SDS011;68276;49.326;8.690;2024-03-23T00:58:15;8.30;;;3.33;;
78887;SDS011;68276;49.326;8.690;2024-03-23T01:00:40;10.73;;;3.67;;
78887;SDS011;68276;49.326;8.690;2024-03-23T01:03:06;9.43;;;3.75;;
78887;SDS011;68276;49.326;8.690;2024-03-23T01:05:31;8.57;;;3.50;;
78887;SDS011;68276;49.326;8.690;2024-03-23T01:07:57;10.68;;;3.70;;
78887;SDS011;68276;49.326;8.690;2024-03-23T01:10:22;8.70;;;3.77;;
78887;SDS011;68276;49.326;8.690;2024-03-23T01:12:47;10.00;;;3.58;;
78887;SDS011;68276;49.326;8.690;2024-03-23T01:15:13;7.32;;;3.00;;
78887;SDS011;68276;49.326;8.690;2024-03-23T01:17:38;10.13;;;4.27;;
78887;SDS011;68276;49.326;8.690;2024-03-23T01:20:04;9.33;;;3.63;;
78887;SDS011;68276;49.326;8.690;2024-03-23T01:22:31;11.13;;;3.45;;
78887;SDS011;68276;49.326;8.690;2024-03-23T01:24:57;7.68;;;3.13;;
78887;SDS011;68276;49.326;8.690;2024-03-23T01:27:22;10.23;;;3.67;;
78887;SDS011;68276;49.326;8.690;2024-03-23T01:29:50;9.05;;;3.70;;
78887;SDS011;68276;49.326;8.690;2024-03-23T01:32:17;9.20;;;3.65;;
78887;SDS011;68276;49.326;8.690;2024-03-23T01:34:43;10.32;;;3.40;;
78887;SDS011;68276;49.326;8.690;2024-03-23T01:37:09;8.35;;;3.40;;
78887;SDS011;68276;49.326;8.690;2024-03-23T01:39:34;8.55;;;3.22;;
78887;SDS011;68276;49.326;8.690;2024-03-23T01:42:00;9.80;;;3.73;;
78887;SDS011;68276;49.326;8.690;2024-03-23T01:44:25;8.80;;;3.53;;
78887;SDS011;68276;49.326;8.690;2024-03-23T01:46:50;10.20;;;3.60;;
78887;SDS011;68276;49.326;8.690;2024-03-23T01:49:16;8.65;;;3.28;;
78887;SDS011;68276;49.326;8.690;2024-03-23T01:51:42;8.68;;;2.97;;
78887;SDS011;68276;49.326;8.690;2024-03-23T01:54:09;10.48;;;3.60;;
78887;SDS011;68276;49.326;8.690;2024-03-23T01:56:35;8.63;;;3.40;;
78887;SDS011;68276;49.326;8.690;2024-03-23T01:59:01;8.38;;;3.22;;
78887;SDS011;68276;49.326;8.690;2024-03-23T02:01:35;8.48;;;3.33;;
78887;SDS011;68276;49.326;8.690;2024-03-23T02:04:01;8.48;;;3.20;;
78887;SDS011;68276;49.326;8.690;2024-03-23T02:06:26;10.25;;;3.15;;
78887;SDS011;68276;49.326;8.690;2024-03-23T02:08:52;8.45;;;3.22;;
78887;SDS011;68276;49.326;8.690;2024-03-23T02:11:19;10.40;;;3.10;;
78887;SDS011;68276;49.326;8.690;2024-03-23T02:13:44;8.05;;;3.03;;
78887;SDS011;68276;49.326;8.690;2024-03-23T02:16:10;8.57;;;3.28;;
78887;SDS011;68276;49.326;8.690;2024-03-23T02:18:35;9.05;;;2.90;;
78887;SDS011;68276;49.326;8.690;2024-03-23T02:21:01;9.27;;;3.10;;
78887;SDS011;68276;49.326;8.690;2024-03-23T02:23:26;7.93;;;3.05;;
78887;SDS011;68276;49.326;8.690;2024-03-23T02:25:52;7.55;;;2.80;;
78887;SDS011;68276;49.326;8.690;2024-03-23T02:28:20;6.97;;;2.85;;
78887;SDS011;68276;49.326;8.690;2024-03-23T02:30:47;8.57;;;3.10;;
78887;SDS011;68276;49.326;8.690;2024-03-23T02:33:16;8.90;;;2.85;;
78887;SDS011;68276;49.326;8.690;2024-03-23T02:35:41;7.80;;;2.45;;
78887;SDS011;68276;49.326;8.690;2024-03-23T02:38:08;7.38;;;2.38;;
78887;SDS011;68276;49.326;8.690;2024-03-23T02:40:34;9.13;;;2.88;;
78887;SDS011;68276;49.326;8.690;2024-03-23T02:43:00;6.88;;;2.47;;
78887;SDS011;68276;49.326;8.690;2024-03-23T02:45:25;7.63;;;2.73;;
78887;SDS011;68276;49.326;8.690;2024-03-23T02:47:50;8.65;;;2.40;;
78887;SDS011;68276;49.326;8.690;2024-03-23T02:50:17;8.95;;;2.83;;
78887;SDS011;68276;49.326;8.690;2024-03-23T02:52:46;7.25;;;2.47;;
78887;SDS011;68276;49.326;8.690;2024-03-23T02:55:12;8.35;;;2.60;;
78887;SDS011;68276;49.326;8.690;2024-03-23T02:57:38;8.95;;;2.60;;
78887;SDS011;68276;49.326;8.690;2024-03-23T03:00:03;8.70;;;2.60;;
78887;SDS011;68276;49.326;8.690;2024-03-23T03:02:30;9.18;;;3.38;;
78887;SDS011;68276;49.326;8.690;2024-03-23T03:04:55;8.07;;;2.80;;
78887;SDS011;68276;49.326;8.690;2024-03-23T03:07:21;8.23;;;2.53;;
78887;SDS011;68276;49.326;8.690;2024-03-23T03:09:46;8.75;;;2.63;;
78887;SDS011;68276;49.326;8.690;2024-03-23T03:12:11;7.23;;;2.10;;
78887;SDS011;68276;49.326;8.690;2024-03-23T03:14:37;7.70;;;2.60;;
78887;SDS011;68276;49.326;8.690;2024-03-23T03:17:02;9.73;;;2.93;;
78887;SDS011;68276;49.326;8.690;2024-03-23T03:19:28;8.48;;;2.55;;
78887;SDS011;68276;49.326;8.690;2024-03-23T03:21:53;7.00;;;2.50;;
78887;SDS011;68276;49.326;8.690;2024-03-23T03:24:19;7.82;;;2.88;;
78887;SDS011;68276;49.326;8.690;2024-03-23T03:26:44;8.80;;;2.92;;
78887;SDS011;68276;49.326;8.690;2024-03-23T03:29:09;8.35;;;2.90;;
78887;SDS011;68276;49.326;8.690;2024-03-23T03:31:36;7.50;;;2.60;;
78887;SDS011;68276;49.326;8.690;2024-03-23T03:34:02;8.88;;;2.97;;
78887;SDS011;68276;49.326;8.690;2024-03-23T03:36:27;9.67;;;3.00;;
78887;SDS011;68276;49.326;8.690;2024-03-23T03:38:53;9.07;;;3.17;;
78887;SDS011;68276;49.326;8.690;2024-03-23T03:41:18;8.60;;;3.03;;
78887;SDS011;68276;49.326;8.690;2024-03-23T03:43:44;8.23;;;2.95;;
78887;SDS011;68276;49.326;8.690;2024-03-23T03:46:09;10.43;;;3.00;;
78887;SDS011;68276;49.326;8.690;2024-03-23T03:48:35;10.35;;;3.28;;
78887;SDS011;68276;49.326;8.690;2024-03-23T03:51:01;10.30;;;3.03;;
78887;SDS011;68276;49.326;8.690;2024-03-23T03:53:27;10.55;;;3.22;;
78887;SDS011;68276;49.326;8.690;2024-03-23T03:55:52;8.93;;;3.20;;
78887;SDS011;68276;49.326;8.690;2024-03-23T03:58:17;8.53;;;3.27;;
78887;SDS011;68276;49.326;8.690;2024-03-23T04:00:43;9.30;;;3.57;;
78887;SDS011;68276;49.326;8.690;2024-03-23T04:03:08;10.45;;;4.78;;
78887;SDS011;68276;49.326;8.690;2024-03-23T04:05:33;8.37;;;3.43;;
78887;SDS011;68276;49.326;8.690;2024-03-23T04:07:59;9.95;;;4.03;;
78887;SDS011;68276;49.326;8.690;2024-03-23T04:10:24;10.13;;;4.05;;
78887;SDS011;68276;49.326;8.690;2024-03-23T04:12:50;9.55;;;4.28;;
78887;SDS011;68276;49.326;8.690;2024-03-23T04:15:15;13.20;;;4.25;;
78887;SDS011;68276;49.326;8.690;2024-03-23T04:17:41;14.45;;;4.90;;
78887;SDS011;68276;49.326;8.690;2024-03-23T04:20:07;13.27;;;4.93;;
78887;SDS011;68276;49.326;8.690;2024-03-23T04:22:36;11.57;;;4.68;;
78887;SDS011;68276;49.326;8.690;2024-03-23T04:25:02;12.38;;;4.50;;
78887;SDS011;68276;49.326;8.690;2024-03-23T04:27:32;12.27;;;5.05;;
78887;SDS011;68276;49.326;8.690;2024-03-23T04:32:23;12.10;;;4.47;;
78887;SDS011;68276;49.326;8.690;2024-03-23T04:34:48;11.43;;;3.78;;
78887;SDS011;68276;49.326;8.690;2024-03-23T04:37:14;12.60;;;4.20;;
78887;SDS011;68276;49.326;8.690;2024-03-23T04:39:39;11.77;;;4.10;;
78887;SDS011;68276;49.326;8.690;2024-03-23T04:42:04;11.37;;;4.17;;
78887;SDS011;68276;49.326;8.690;2024-03-23T04:44:30;12.15;;;4.75;;
78887;SDS011;68276;49.326;8.690;2024-03-23T04:46:56;11.18;;;4.30;;
78887;SDS011;68276;49.326;8.690;2024-03-23T04:49:22;12.00;;;4.50;;
78887;SDS011;68276;49.326;8.690;2024-03-23T04:51:48;11.43;;;4.50;;
78887;SDS011;68276;49.326;8.690;2024-03-23T04:54:13;13.80;;;4.00;;
78887;SDS011;68276;49.326;8.690;2024-03-23T04:56:38;12.25;;;3.63;;
78887;SDS011;68276;49.326;8.690;2024-03-23T04:59:04;13.65;;;3.70;;
78887;SDS011;68276;49.326;8.690;2024-03-23T05:01:33;9.68;;;2.85;;
78887;SDS011;68276;49.326;8.690;2024-03-23T05:03:59;10.27;;;3.75;;
78887;SDS011;68276;49.326;8.690;2024-03-23T05:06:25;12.10;;;4.35;;
78887;SDS011;68276;49.326;8.690;2024-03-23T05:08:50;9.88;;;3.78;;
78887;SDS011;68276;49.326;8.690;2024-03-23T05:11:19;9.70;;;3.70;;
78887;SDS011;68276;49.326;8.690;2024-03-23T05:13:45;10.60;;;3.20;;
78887;SDS011;68276;49.326;8.690;2024-03-23T05:16:11;10.18;;;3.75;;
78887;SDS011;68276;49.326;8.690;2024-03-23T05:18:39;9.47;;;2.70;;
78887;SDS011;68276;49.326;8.690;2024-03-23T05:21:04;7.57;;;2.60;;
78887;SDS011;68276;49.326;8.690;2024-03-23T05:23:29;10.50;;;2.97;;
78887;SDS011;68276;49.326;8.690;2024-03-23T05:25:55;9.00;;;2.73;;
78887;SDS011;68276;49.326;8.690;2024-03-23T05:28:21;6.00;;;2.28;;
78887;SDS011;68276;49.326;8.690;2024-03-23T05:30:53;6.18;;;1.95;;
78887;SDS011;68276;49.326;8.690;2024-03-23T05:33:19;6.32;;;1.52;;
78887;SDS011;68276;49.326;8.690;2024-03-23T05:35:46;5.70;;;1.80;;
78887;SDS011;68276;49.326;8.690;2024-03-23T05:38:12;4.68;;;1.38;;
78887;SDS011;68276;49.326;8.690;2024-03-23T05:40:38;7.22;;;1.50;;
78887;SDS011;68276;49.326;8.690;2024-03-23T05:45:31;5.05;;;1.50;;
78887;SDS011;68276;49.326;8.690;2024-03-23T05:47:56;3.80;;;1.10;;
78887;SDS011;68276;49.326;8.690;2024-03-23T05:50:22;2.50;;;0.90;;
78887;SDS011;68276;49.326;8.690;2024-03-23T05:52:48;4.80;;;1.13;;
78887;SDS011;68276;49.326;8.690;2024-03-23T05:55:14;3.20;;;0.73;;
78887;SDS011;68276;49.326;8.690;2024-03-23T05:57:39;3.08;;;0.82;;
78887;SDS011;68276;49.326;8.690;2024-03-23T06:00:05;3.22;;;0.75;;
78887;SDS011;68276;49.326;8.690;2024-03-23T06:02:35;1.55;;;0.52;;
78887;SDS011;68276;49.326;8.690;2024-03-23T06:05:01;2.78;;;0.80;;
78887;SDS011;68276;49.326;8.690;2024-03-23T06:07:27;10.30;;;1.23;;
78887;SDS011;68276;49.326;8.690;2024-03-23T06:09:52;2.97;;;0.80;;
78887;SDS011;68276;49.326;8.690;2024-03-23T06:12:18;4.70;;;1.10;;
78887;SDS011;68276;49.326;8.690;2024-03-23T06:14:43;2.87;;;1.10;;
78887;SDS011;68276;49.326;8.690;2024-03-23T06:17:09;3.30;;;1.00;;
78887;SDS011;68276;49.326;8.690;2024-03-23T06:19:34;3.47;;;0.90;;
78887;SDS011;68276;49.326;8.690;2024-03-23T06:21:59;3.38;;;1.15;;
78887;SDS011;68276;49.326;8.690;2024-03-23T06:24:25;3.03;;;0.90;;
78887;SDS011;68276;49.326;8.690;2024-03-23T06:26:50;2.67;;;0.88;;
78887;SDS011;68276;49.326;8.690;2024-03-23T06:29:16;3.60;;;1.23;;
78887;SDS011;68276;49.326;8.690;2024-03-23T06:31:41;3.73;;;1.13;;
78887;SDS011;68276;49.326;8.690;2024-03-23T06:34:06;2.80;;;0.90;;
78887;SDS011;68276;49.326;8.690;2024-03-23T06:36:32;1.30;;;0.70;;
78887;SDS011;68276;49.326;8.690;2024-03-23T06:38:58;2.83;;;0.80;;
78887;SDS011;68276;49.326;8.690;2024-03-23T06:41:23;1.50;;;0.73;;
78887;SDS011;68276;49.326;8.690;2024-03-23T06:43:49;2.78;;;0.70;;
78887;SDS011;68276;49.326;8.690;2024-03-23T06:46:15;3.60;;;0.90;;
78887;SDS011;68276;49.326;8.690;2024-03-23T06:48:40;2.83;;;0.93;;
78887;SDS011;68276;49.326;8.690;2024-03-23T06:51:05;3.28;;;0.90;;
78887;SDS011;68276;49.326;8.690;2024-03-23T06:53:31;3.15;;;1.02;;
78887;SDS011;68276;49.326;8.690;2024-03-23T06:55:57;1.80;;;0.70;;
78887;SDS011;68276;49.326;8.690;2024-03-23T06:58:23;1.42;;;0.60;;
78887;SDS011;68276;49.326;8.690;2024-03-23T07:00:50;2.20;;;0.80;;
78887;SDS011;68276;49.326;8.690;2024-03-23T07:03:19;1.88;;;0.80;;
78887;SDS011;68276;49.326;8.690;2024-03-23T07:05:46;1.52;;;0.43;;
78887;SDS011;68276;49.326;8.690;2024-03-23T07:08:11;2.20;;;0.70;;
78887;SDS011;68276;49.326;8.690;2024-03-23T07:10:40;2.72;;;0.70;;
78887;SDS011;68276;49.326;8.690;2024-03-23T07:13:05;1.63;;;0.52;;
78887;SDS011;68276;49.326;8.690;2024-03-23T07:15:31;1.55;;;0.30;;
78887;SDS011;68276;49.326;8.690;2024-03-23T07:17:56;1.02;;;0.40;;
78887;SDS011;68276;49.326;8.690;2024-03-23T07:20:22;1.03;;;0.30;;
78887;SDS011;68276;49.326;8.690;2024-03-23T07:22:47;0.43;;;0.20;;
78887;SDS011;68276;49.326;8.690;2024-03-23T07:25:12;0.67;;;0.20;;
78887;SDS011;68276;49.326;8.690;2024-03-23T07:27:38;1.02;;;0.30;;
78887;SDS011;68276;49.326;8.690;2024-03-23T07:30:03;0.10;;;0.10;;
78887;SDS011;68276;49.326;8.690;2024-03-23T07:32:29;1.17;;;0.30;;
78887;SDS011;68276;49.326;8.690;2024-03-23T07:34:55;0.10;;;0.10;;
78887;SDS011;68276;49.326;8.690;2024-03-23T07:37:20;0.80;;;0.10;;
78887;SDS011;68276;49.326;8.690;2024-03-23T07:39:45;0.10;;;0.10;;
78887;SDS011;68276;49.326;8.690;2024-03-23T07:42:11;1.27;;;0.30;;
78887;SDS011;68276;49.326;8.690;2024-03-23T07:44:36;0.03;;;0.00;;
78887;SDS011;68276;49.326;8.690;2024-03-23T07:47:02;0.80;;;0.38;;
78887;SDS011;68276;49.326;8.690;2024-03-23T07:49:28;1.05;;;0.35;;
78887;SDS011;68276;49.326;8.690;2024-03-23T07:51:54;0.80;;;0.30;;
78887;SDS011;68276;49.326;8.690;2024-03-23T07:54:20;0.53;;;0.10;;
78887;SDS011;68276;49.326;8.690;2024-03-23T07:56:45;1.43;;;0.40;;
78887;SDS011;68276;49.326;8.690;2024-03-23T07:59:10;1.92;;;0.50;;
78887;SDS011;68276;49.326;8.690;2024-03-23T08:01:36;1.20;;;0.67;;
78887;SDS011;68276;49.326;8.690;2024-03-23T08:04:01;5.57;;;0.68;;
78887;SDS011;68276;49.326;8.690;2024-03-23T08:06:27;3.87;;;0.67;;
78887;SDS011;68276;49.326;8.690;2024-03-23T08:08:54;3.67;;;0.95;;
78887;SDS011;68276;49.326;8.690;2024-03-23T08:11:30;2.83;;;0.70;;
78887;SDS011;68276;49.326;8.690;2024-03-23T08:13:57;1.98;;;0.68;;
78887;SDS011;68276;49.326;8.690;2024-03-23T08:16:22;4.07;;;0.80;;
78887;SDS011;68276;49.326;8.690;2024-03-23T08:18:51;1.88;;;0.75;;
78887;SDS011;68276;49.326;8.690;2024-03-23T08:21:16;2.58;;;0.70;;
78887;SDS011;68276;49.326;8.690;2024-03-23T08:23:42;2.15;;;0.40;;
78887;SDS011;68276;49.326;8.690;2024-03-23T08:26:16;2.87;;;0.87;;
78887;SDS011;68276;49.326;8.690;2024-03-23T08:28:43;4.90;;;1.08;;
78887;SDS011;68276;49.326;8.690;2024-03-23T08:31:09;3.88;;;0.73;;
78887;SDS011;68276;49.326;8.690;2024-03-23T08:33:38;4.28;;;0.80;;
78887;SDS011;68276;49.326;8.690;2024-03-23T08:36:07;4.07;;;0.98;;
78887;SDS011;68276;49.326;8.690;2024-03-23T08:38:34;7.85;;;1.80;;
78887;SDS011;68276;49.326;8.690;2024-03-23T08:41:00;3.67;;;0.80;;
78887;SDS011;68276;49.326;8.690;2024-03-23T08:43:27;3.33;;;0.70;;
78887;SDS011;68276;49.326;8.690;2024-03-23T08:46:02;5.65;;;0.90;;
78887;SDS011;68276;49.326;8.690;2024-03-23T08:48:32;3.90;;;0.95;;
78887;SDS011;68276;49.326;8.690;2024-03-23T08:53:27;5.00;;;1.45;;
78887;SDS011;68276;49.326;8.690;2024-03-23T08:58:19;5.70;;;1.08;;
78887;SDS011;68276;49.326;8.690;2024-03-23T09:00:45;5.47;;;1.02;;
78887;SDS011;68276;49.326;8.690;2024-03-23T09:03:10;5.40;;;1.17;;
78887;SDS011;68276;49.326;8.690;2024-03-23T09:05:39;3.57;;;1.00;;
78887;SDS011;68276;49.326;8.690;2024-03-23T09:08:05;4.38;;;0.85;;
78887;SDS011;68276;49.326;8.690;2024-03-23T09:10:31;5.03;;;1.27;;
78887;SDS011;68276;49.326;8.690;2024-03-23T09:12:56;5.57;;;1.00;;
78887;SDS011;68276;49.326;8.690;2024-03-23T09:15:22;5.00;;;1.10;;
78887;SDS011;68276;49.326;8.690;2024-03-23T09:17:47;4.30;;;1.00;;
78887;SDS011;68276;49.326;8.690;2024-03-23T09:20:13;5.50;;;1.27;;
78887;SDS011;68276;49.326;8.690;2024-03-23T09:22:38;6.23;;;1.20;;
78887;SDS011;68276;49.326;8.690;2024-03-23T09:25:04;4.20;;;1.23;;
78887;SDS011;68276;49.326;8.690;2024-03-23T09:27:30;5.80;;;1.10;;
78887;SDS011;68276;49.326;8.690;2024-03-23T09:29:55;2.35;;;0.85;;
78887;SDS011;68276;49.326;8.690;2024-03-23T09:32:21;6.17;;;1.00;;
78887;SDS011;68276;49.326;8.690;2024-03-23T09:34:46;3.67;;;1.03;;
78887;SDS011;68276;49.326;8.690;2024-03-23T09:37:11;6.33;;;1.30;;
78887;SDS011;68276;49.326;8.690;2024-03-23T09:39:37;5.17;;;1.30;;
78887;SDS011;68276;49.326;8.690;2024-03-23T09:42:02;5.23;;;0.90;;
78887;SDS011;68276;49.326;8.690;2024-03-23T09:44:29;5.15;;;1.30;;
78887;SDS011;68276;49.326;8.690;2024-03-23T09:46:55;5.13;;;1.02;;
78887;SDS011;68276;49.326;8.690;2024-03-23T09:49:21;6.18;;;1.25;;
78887;SDS011;68276;49.326;8.690;2024-03-23T09:51:46;7.47;;;1.27;;
78887;SDS011;68276;49.326;8.690;2024-03-23T09:54:12;4.00;;;1.20;;
78887;SDS011;68276;49.326;8.690;2024-03-23T09:56:37;6.97;;;1.15;;
78887;SDS011;68276;49.326;8.690;2024-03-23T09:59:03;4.60;;;1.10;;
78887;SDS011;68276;49.326;8.690;2024-03-23T10:01:31;6.05;;;1.20;;
78887;SDS011;68276;49.326;8.690;2024-03-23T10:03:57;7.38;;;2.05;;
78887;SDS011;68276;49.326;8.690;2024-03-23T10:06:22;5.45;;;1.42;;
78887;SDS011;68276;49.326;8.690;2024-03-23T10:08:51;6.10;;;1.23;;
78887;SDS011;68276;49.326;8.690;2024-03-23T10:11:18;6.22;;;1.38;;
78887;SDS011;68276;49.326;8.690;2024-03-23T10:13:44;6.45;;;1.50;;
78887;SDS011;68276;49.326;8.690;2024-03-23T10:16:20;5.10;;;1.20;;
78887;SDS011;68276;49.326;8.690;2024-03-23T10:18:48;4.32;;;1.20;;
78887;SDS011;68276;49.326;8.690;2024-03-23T10:21:14;4.40;;;1.05;;
78887;SDS011;68276;49.326;8.690;2024-03-23T10:23:41;9.15;;;1.35;;
78887;SDS011;68276;49.326;8.690;2024-03-23T10:26:18;7.30;;;1.42;;
78887;SDS011;68276;49.326;8.690;2024-03-23T10:28:53;7.78;;;1.30;;
78887;SDS011;68276;49.326;8.690;2024-03-23T10:31:20;5.90;;;1.25;;
78887;SDS011;68276;49.326;8.690;2024-03-23T10:33:49;8.40;;;1.42;;
78887;SDS011;68276;49.326;8.690;2024-03-23T10:36:15;7.03;;;1.48;;
78887;SDS011;68276;49.326;8.690;2024-03-23T10:38:41;8.10;;;1.48;;
78887;SDS011;68276;49.326;8.690;2024-03-23T10:41:08;3.90;;;1.15;;
78887;SDS011;68276;49.326;8.690;2024-03-23T10:43:35;8.55;;;1.80;;
78887;SDS011;68276;49.326;8.690;2024-03-23T10:46:01;9.65;;;1.63;;
78887;SDS011;68276;49.326;8.690;2024-03-23T10:48:27;4.47;;;1.23;;
78887;SDS011;68276;49.326;8.690;2024-03-23T10:50:53;4.77;;;1.30;;
78887;SDS011;68276;49.326;8.690;2024-03-23T10:53:19;6.57;;;1.35;;
78887;SDS011;68276;49.326;8.690;2024-03-23T10:55:50;7.88;;;1.42;;
78887;SDS011;68276;49.326;8.690;2024-03-23T10:58:17;7.65;;;1.30;;
78887;SDS011;68276;49.326;8.690;2024-03-23T11:00:46;4.90;;;1.27;;
78887;SDS011;68276;49.326;8.690;2024-03-23T11:05:56;4.85;;;1.00;;
78887;SDS011;68276;49.326;8.690;2024-03-23T11:08:32;4.93;;;1.50;;
78887;SDS011;68276;49.326;8.690;2024-03-23T11:11:11;4.57;;;1.20;;
78887;SDS011;68276;49.326;8.690;2024-03-23T11:13:52;6.40;;;1.23;;
78887;SDS011;68276;49.326;8.690;2024-03-23T11:16:22;7.72;;;1.35;;
78887;SDS011;68276;49.326;8.690;2024-03-23T11:18:49;4.30;;;1.27;;
78887;SDS011;68276;49.326;8.690;2024-03-23T11:24:16;7.53;;;1.63;;
78887;SDS011;68276;49.326;8.690;2024-03-23T11:26:42;7.07;;;1.00;;
78887;SDS011;68276;49.326;8.690;2024-03-23T11:29:11;5.53;;;1.20;;
78887;SDS011;68276;49.326;8.690;2024-03-23T11:31:37;5.55;;;1.02;;
78887;SDS011;68276;49.326;8.690;2024-03-23T11:34:06;8.23;;;1.10;;
78887;SDS011;68276;49.326;8.690;2024-03-23T11:36:32;5.70;;;1.00;;
78887;SDS011;68276;49.326;8.690;2024-03-23T11:38:57;5.13;;;0.93;;
78887;SDS011;68276;49.326;8.690;2024-03-23T11:41:23;4.93;;;0.77;;
78887;SDS011;68276;49.326;8.690;2024-03-23T11:43:48;6.00;;;1.00;;
78887;SDS011;68276;49.326;8.690;2024-03-23T11:46:21;3.97;;;0.90;;
78887;SDS011;68276;49.326;8.690;2024-03-23T11:48:51;4.63;;;0.80;;
78887;SDS011;68276;49.326;8.690;2024-03-23T11:51:17;6.47;;;1.30;;
78887;SDS011;68276;49.326;8.690;2024-03-23T11:53:42;3.38;;;0.90;;
78887;SDS011;68276;49.326;8.690;2024-03-23T11:56:08;2.83;;;0.80;;
78887;SDS011;68276;49.326;8.690;2024-03-23T11:58:34;6.70;;;1.00;;
78887;SDS011;68276;49.326;8.690;2024-03-23T12:01:00;3.67;;;0.90;;
78887;SDS011;68276;49.326;8.690;2024-03-23T12:03:27;4.38;;;1.05;;
78887;SDS011;68276;49.326;8.690;2024-03-23T12:05:54;7.07;;;1.38;;
78887;SDS011;68276;49.326;8.690;2024-03-23T12:08:21;5.70;;;1.23;;
78887;SDS011;68276;49.326;8.690;2024-03-23T12:10:49;5.35;;;1.20;;
78887;SDS011;68276;49.326;8.690;2024-03-23T12:13:19;3.97;;;0.85;;
78887;SDS011;68276;49.326;8.690;2024-03-23T12:15:46;4.00;;;1.00;;
78887;SDS011;68276;49.326;8.690;2024-03-23T12:18:14;5.38;;;1.60;;
78887;SDS011;68276;49.326;8.690;2024-03-23T12:20:39;5.38;;;1.20;;
78887;SDS011;68276;49.326;8.690;2024-03-23T12:23:05;6.38;;;1.40;;
78887;SDS011;68276;49.326;8.690;2024-03-23T12:25:38;6.82;;;1.40;;
78887;SDS011;68276;49.326;8.690;2024-03-23T12:28:05;7.53;;;1.58;;
78887;SDS011;68276;49.326;8.690;2024-03-23T12:30:34;6.10;;;1.55;;
78887;SDS011;68276;49.326;8.690;2024-03-23T12:33:01;7.65;;;1.30;;
78887;SDS011;68276;49.326;8.690;2024-03-23T12:35:27;7.55;;;1.45;;
78887;SDS011;68276;49.326;8.690;2024-03-23T12:37:52;7.47;;;1.73;;
78887;SDS011;68276;49.326;8.690;2024-03-23T12:40:17;5.18;;;1.40;;
78887;SDS011;68276;49.326;8.690;2024-03-23T12:42:43;5.85;;;1.30;;
78887;SDS011;68276;49.326;8.690;2024-03-23T12:45:08;10.45;;;1.65;;
78887;SDS011;68276;49.326;8.690;2024-03-23T12:47:34;8.15;;;1.30;;
78887;SDS011;68276;49.326;8.690;2024-03-23T12:49:59;6.47;;;1.40;;
78887;SDS011;68276;49.326;8.690;2024-03-23T12:52:25;10.10;;;1.83;;
78887;SDS011;68276;49.326;8.690;2024-03-23T12:54:54;6.22;;;1.40;;
78887;SDS011;68276;49.326;8.690;2024-03-23T12:57:21;3.42;;;0.90;;
78887;SDS011;68276;49.326;8.690;2024-03-23T12:59:47;3.78;;;0.85;;
78887;SDS011;68276;49.326;8.690;2024-03-23T13:02:15;3.88;;;1.08;;
78887;SDS011;68276;49.326;8.690;2024-03-23T13:04:42;3.38;;;0.88;;
78887;SDS011;68276;49.326;8.690;2024-03-23T13:07:07;4.47;;;1.10;;
78887;SDS011;68276;49.326;8.690;2024-03-23T13:09:32;4.60;;;1.20;;
78887;SDS011;68276;49.326;8.690;2024-03-23T13:11:58;7.67;;;1.40;;
78887;SDS011;68276;49.326;8.690;2024-03-23T13:14:23;4.67;;;0.90;;
78887;SDS011;68276;49.326;8.690;2024-03-23T13:16:48;1.83;;;0.50;;
78887;SDS011;68276;49.326;8.690;2024-03-23T13:19:14;0.47;;;0.17;;
78887;SDS011;68276;49.326;8.690;2024-03-23T13:21:40;2.25;;;0.50;;
78887;SDS011;68276;49.326;8.690;2024-03-23T13:24:05;0.95;;;0.50;;
78887;SDS011;68276;49.326;8.690;2024-03-23T13:26:32;0.30;;;0.20;;
78887;SDS011;68276;49.326;8.690;2024-03-23T13:28:58;3.50;;;0.55;;
78887;SDS011;68276;49.326;8.690;2024-03-23T13:31:23;0.67;;;0.17;;
78887;SDS011;68276;49.326;8.690;2024-03-23T13:33:49;1.37;;;0.30;;
78887;SDS011;68276;49.326;8.690;2024-03-23T13:36:14;0.28;;;0.20;;
78887;SDS011;68276;49.326;8.690;2024-03-23T13:38:39;0.77;;;0.45;;
78887;SDS011;68276;49.326;8.690;2024-03-23T13:41:05;1.25;;;0.40;;
78887;SDS011;68276;49.326;8.690;2024-03-23T13:43:31;2.22;;;0.80;;
78887;SDS011;68276;49.326;8.690;2024-03-23T13:45:57;2.35;;;0.40;;
78887;SDS011;68276;49.326;8.690;2024-03-23T13:48:24;0.60;;;0.30;;
78887;SDS011;68276;49.326;8.690;2024-03-23T13:51:00;1.13;;;0.50;;
78887;SDS011;68276;49.326;8.690;2024-03-23T13:53:29;2.78;;;0.60;;
78887;SDS011;68276;49.326;8.690;2024-03-23T13:55:55;2.75;;;0.80;;
78887;SDS011;68276;49.326;8.690;2024-03-23T13:58:21;2.40;;;0.57;;
78887;SDS011;68276;49.326;8.690;2024-03-23T14:00:48;1.35;;;0.47;;
78887;SDS011;68276;49.326;8.690;2024-03-23T14:03:14;1.90;;;0.50;;
78887;SDS011;68276;49.326;8.690;2024-03-23T14:05:39;1.05;;;0.32;;
78887;SDS011;68276;49.326;8.690;2024-03-23T14:10:31;1.20;;;0.40;;
78887;SDS011;68276;49.326;8.690;2024-03-23T14:12:57;0.65;;;0.43;;
78887;SDS011;68276;49.326;8.690;2024-03-23T14:15:22;2.70;;;0.50;;
78887;SDS011;68276;49.326;8.690;2024-03-23T14:17:48;2.70;;;0.80;;
78887;SDS011;68276;49.326;8.690;2024-03-23T14:20:14;2.10;;;0.43;;
78887;SDS011;68276;49.326;8.690;2024-03-23T14:22:40;1.10;;;0.32;;
78887;SDS011;68276;49.326;8.690;2024-03-23T14:25:06;2.80;;;0.65;;
78887;SDS011;68276;49.326;8.690;2024-03-23T14:27:32;4.13;;;0.55;;
78887;SDS011;68276;49.326;8.690;2024-03-23T14:29:57;4.45;;;0.70;;
78887;SDS011;68276;49.326;8.690;2024-03-23T14:32:23;1.85;;;0.50;;
78887;SDS011;68276;49.326;8.690;2024-03-23T14:34:49;4.05;;;0.60;;
78887;SDS011;68276;49.326;8.690;2024-03-23T14:37:14;7.07;;;0.50;;
78887;SDS011;68276;49.326;8.690;2024-03-23T14:39:41;2.58;;;0.60;;
78887;SDS011;68276;49.326;8.690;2024-03-23T14:42:07;1.20;;;0.40;;
78887;SDS011;68276;49.326;8.690;2024-03-23T14:44:35;2.63;;;0.55;;
78887;SDS011;68276;49.326;8.690;2024-03-23T14:47:00;0.47;;;0.30;;
78887;SDS011;68276;49.326;8.690;2024-03-23T14:49:26;0.83;;;0.43;;
78887;SDS011;68276;49.326;8.690;2024-03-23T14:51:51;3.47;;;0.40;;
78887;SDS011;68276;49.326;8.690;2024-03-23T14:54:17;1.90;;;0.40;;
78887;SDS011;68276;49.326;8.690;2024-03-23T14:56:42;3.70;;;0.73;;
78887;SDS011;68276;49.326;8.690;2024-03-23T14:59:07;1.13;;;0.40;;
78887;SDS011;68276;49.326;8.690;2024-03-23T15:01:33;2.63;;;0.43;;
78887;SDS011;68276;49.326;8.690;2024-03-23T15:03:59;2.05;;;0.40;;
78887;SDS011;68276;49.326;8.690;2024-03-23T15:06:25;3.55;;;0.77;;
78887;SDS011;68276;49.326;8.690;2024-03-23T15:08:50;1.25;;;0.40;;
78887;SDS011;68276;49.326;8.690;2024-03-23T15:11:15;6.73;;;0.70;;
78887;SDS011;68276;49.326;8.690;2024-03-23T15:13:44;1.90;;;0.73;;
78887;SDS011;68276;49.326;8.690;2024-03-23T15:16:09;2.50;;;0.70;;
78887;SDS011;68276;49.326;8.690;2024-03-23T15:18:35;3.60;;;0.82;;
78887;SDS011;68276;49.326;8.690;2024-03-23T15:21:01;3.80;;;0.90;;
78887;SDS011;68276;49.326;8.690;2024-03-23T15:23:31;3.78;;;0.80;;
78887;SDS011;68276;49.326;8.690;2024-03-23T15:26:00;1.23;;;0.60;;
78887;SDS011;68276;49.326;8.690;2024-03-23T15:28:27;3.00;;;0.82;;
78887;SDS011;68276;49.326;8.690;2024-03-23T15:31:03;2.60;;;0.60;;
78887;SDS011;68276;49.326;8.690;2024-03-23T15:33:32;4.72;;;0.82;;
78887;SDS011;68276;49.326;8.690;2024-03-23T15:36:01;4.68;;;0.77;;
78887;SDS011;68276;49.326;8.690;2024-03-23T15:38:30;2.03;;;0.50;;
78887;SDS011;68276;49.326;8.690;2024-03-23T15:40:57;1.30;;;0.50;;
78887;SDS011;68276;49.326;8.690;2024-03-23T15:43:22;2.78;;;0.70;;
78887;SDS011;68276;49.326;8.690;2024-03-23T15:45:58;1.90;;;0.40;;
78887;SDS011;68276;49.326;8.690;2024-03-23T15:48:25;1.02;;;0.32;;
78887;SDS011;68276;49.326;8.690;2024-03-23T15:50:56;3.08;;;0.70;;
78887;SDS011;68276;49.326;8.690;2024-03-23T15:53:23;2.88;;;1.10;;
78887;SDS011;68276;49.326;8.690;2024-03-23T15:58:25;3.30;;;0.40;;